Time;durP1;ratioP1;P1;durP2;ratioP2;P2;SDS_P1;SDS_P2;PMS_P1;PMS_P2;Temp;Humidity;BMP_temperature;BMP_pressure;BME280_temperature;BME280_humidity;BME280_pressure;Samples;Min_cycle;Max_cycle;Signal;HPM_P1;HPM_P2
2022/07/12 00:02:02;;;;;;;5.25;1.00;;;;;;;14.22;56.31;100343.47;4403123;32;34022;-76
2022/07/12 00:04:29;;;;;;;5.43;1.00;;;;;;;14.40;55.58;100338.06;4389442;32;33583;-77
2022/07/12 00:06:57;;;;;;;2.83;1.10;;;;;;;14.28;55.76;100338.47;4403011;32;33532;-77
2022/07/12 00:09:24;;;;;;;5.50;0.93;;;;;;;14.38;55.84;100344.06;4401757;32;34465;-77
2022/07/12 00:11:52;;;;;;;4.05;1.20;;;;;;;14.50;55.54;100349.72;4400817;32;32924;-76
2022/07/12 00:14:20;;;;;;;6.62;1.08;;;;;;;14.41;55.87;100338.94;4391953;32;33612;-76
2022/07/12 00:16:47;;;;;;;3.72;1.08;;;;;;;14.34;56.32;100338.72;4402490;32;32285;-77
2022/07/12 00:19:15;;;;;;;2.97;1.10;;;;;;;14.44;56.14;100339.06;4392421;32;34864;-75
2022/07/12 00:21:42;;;;;;;2.67;1.17;;;;;;;14.22;57.06;100343.47;4402719;32;34475;-77
2022/07/12 00:24:10;;;;;;;3.70;1.00;;;;;;;13.88;58.39;100346.44;4406033;32;33600;-77
2022/07/12 00:26:38;;;;;;;2.80;1.50;;;;;;;14.25;57.32;100343.56;4405391;32;33775;-77
2022/07/12 00:29:06;;;;;;;3.97;0.88;;;;;;;15.39;53.92;100329.44;4405107;32;34570;-77
2022/07/12 00:31:33;;;;;;;2.92;1.20;;;;;;;15.58;53.07;100332.69;4403050;32;34636;-76
2022/07/12 00:34:01;;;;;;;3.37;1.30;;;;;;;15.01;54.20;100338.53;4405147;32;34416;-77
2022/07/12 00:36:29;;;;;;;4.68;1.20;;;;;;;15.94;52.39;100339.97;4405955;32;34577;-77
2022/07/12 00:38:56;;;;;;;5.82;1.30;;;;;;;16.31;51.34;100335.03;4402980;32;33979;-76
2022/07/12 00:41:24;;;;;;;3.17;1.10;;;;;;;16.67;50.26;100339.56;4392983;32;34247;-76
2022/07/12 00:43:52;;;;;;;2.00;1.20;;;;;;;16.27;50.67;100343.62;4404868;32;33671;-76
2022/07/12 00:46:22;;;;;;;2.30;0.95;;;;;;;16.24;51.20;100348.75;4402758;32;34631;-77
2022/07/12 00:48:50;;;;;;;4.57;1.15;;;;;;;16.11;51.16;100346.63;4394066;32;33892;-77
2022/07/12 00:51:18;;;;;;;3.55;1.25;;;;;;;16.57;49.94;100341.84;4404667;32;34337;-76
2022/07/12 00:53:46;;;;;;;3.25;1.17;;;;;;;15.89;51.62;100351.12;4404006;32;33614;-76
2022/07/12 00:56:14;;;;;;;3.60;1.12;;;;;;;14.62;55.35;100352.84;4404367;32;33939;-77
2022/07/12 00:58:43;;;;;;;3.30;1.12;;;;;;;15.13;54.07;100350.31;4396326;32;33962;-78
2022/07/12 01:01:11;;;;;;;6.40;1.30;;;;;;;16.37;50.57;100344.78;4403683;32;34970;-77
2022/07/12 01:03:39;;;;;;;7.43;1.10;;;;;;;16.44;50.13;100345.87;4394745;32;34368;-76
2022/07/12 01:06:10;;;;;;;3.60;1.02;;;;;;;16.53;49.82;100356.56;4404487;32;33831;-76
2022/07/12 01:08:37;;;;;;;3.58;1.10;;;;;;;15.77;51.78;100348.13;4402120;32;34563;-76
2022/07/12 01:11:05;;;;;;;4.95;1.20;;;;;;;16.18;50.71;100345.94;4405212;32;34634;-76
2022/07/12 01:13:34;;;;;;;4.32;1.10;;;;;;;15.64;51.91;100353.75;4401766;32;34368;-77
2022/07/12 01:16:02;;;;;;;5.80;1.23;;;;;;;15.11;53.68;100351.09;4395677;32;33241;-76
2022/07/12 01:18:30;;;;;;;3.55;1.37;;;;;;;15.41;52.48;100350.38;4405543;32;33828;-76
2022/07/12 01:20:57;;;;;;;4.10;1.08;;;;;;;15.72;51.65;100349.66;4390396;32;34150;-77
2022/07/12 01:23:25;;;;;;;5.55;1.85;;;;;;;15.19;52.98;100344.44;4394385;32;33522;-76
2022/07/12 01:25:52;;;;;;;3.42;1.20;;;;;;;14.82;54.03;100350.94;4394400;32;34005;-77
2022/07/12 01:28:27;;;;;;;5.05;1.20;;;;;;;14.98;54.01;100343.69;4402727;32;33959;-76
2022/07/12 01:30:54;;;;;;;2.90;0.82;;;;;;;15.64;52.39;100338.97;4401323;32;34218;-78
2022/07/12 01:33:22;;;;;;;4.53;1.17;;;;;;;15.97;51.02;100335.69;4403733;32;33398;-76
2022/07/12 01:35:49;;;;;;;5.03;1.08;;;;;;;15.36;52.51;100331.97;4395546;32;34484;-76
2022/07/12 01:38:17;;;;;;;4.43;1.12;;;;;;;15.25;53.08;100333.31;4398930;32;34657;-77
2022/07/12 01:40:45;;;;;;;3.10;1.27;;;;;;;15.32;53.21;100336.19;4405474;32;34141;-75
2022/07/12 01:43:14;;;;;;;4.75;1.45;;;;;;;15.50;52.62;100338.53;4405498;32;32196;-76
2022/07/12 01:45:42;;;;;;;7.82;1.67;;;;;;;14.79;54.63;100343.00;4390455;32;33827;-76
2022/07/12 01:48:10;;;;;;;4.45;1.87;;;;;;;14.60;55.31;100338.81;4402755;32;33712;-77
2022/07/12 01:50:37;;;;;;;3.50;1.12;;;;;;;14.32;56.24;100334.28;4399881;32;34848;-76
2022/07/12 01:53:07;;;;;;;3.97;1.50;;;;;;;14.29;56.37;100340.28;4405360;32;33538;-77
2022/07/12 01:55:35;;;;;;;5.57;1.65;;;;;;;15.06;54.12;100330.06;4394429;32;33938;-76
2022/07/12 01:58:03;;;;;;;3.12;1.30;;;;;;;15.38;53.13;100325.06;4400772;32;34583;-75
2022/07/12 02:00:31;;;;;;;5.40;1.27;;;;;;;14.47;55.84;100337.47;4404519;32;34813;-77
2022/07/12 02:02:59;;;;;;;4.93;1.30;;;;;;;14.25;56.60;100333.13;4405915;32;33712;-76
2022/07/12 02:05:27;;;;;;;5.25;1.45;;;;;;;14.60;55.77;100333.59;4403284;32;34820;-74
2022/07/12 02:07:55;;;;;;;5.28;1.30;;;;;;;14.60;55.93;100330.12;4405440;32;32889;-75
2022/07/12 02:10:23;;;;;;;4.22;1.58;;;;;;;15.22;53.93;100334.09;4391669;32;33911;-74
2022/07/12 02:12:50;;;;;;;3.67;0.90;;;;;;;15.84;52.08;100333.53;4406853;32;34488;-74
2022/07/12 02:15:18;;;;;;;3.17;1.27;;;;;;;16.12;50.97;100333.56;4398715;32;34483;-76
2022/07/12 02:17:47;;;;;;;5.05;1.23;;;;;;;15.91;51.52;100333.78;4389453;32;32401;-76
2022/07/12 02:20:15;;;;;;;3.03;1.27;;;;;;;16.60;49.19;100329.75;4404560;32;34719;-74
2022/07/12 02:22:43;;;;;;;6.15;1.37;;;;;;;16.69;48.80;100327.41;4398719;32;34474;-76
2022/07/12 02:25:10;;;;;;;8.00;1.30;;;;;;;16.17;50.57;100325.88;4403186;32;34643;-74
2022/07/12 02:27:40;;;;;;;3.47;1.23;;;;;;;15.20;53.06;100329.66;4400961;32;34554;-75
2022/07/12 02:30:09;;;;;;;4.47;1.30;;;;;;;14.28;56.32;100342.81;4408262;32;34638;-73
2022/07/12 02:32:37;;;;;;;6.15;1.80;;;;;;;14.09;57.05;100342.09;4394964;32;34737;-75
2022/07/12 02:35:05;;;;;;;4.12;1.27;;;;;;;13.96;57.93;100338.13;4406915;32;34348;-73
2022/07/12 02:37:33;;;;;;;4.50;1.50;;;;;;;13.89;58.12;100333.50;4394651;32;33402;-74
2022/07/12 02:42:48;;;;;;;2.30;0.95;;;;;;;13.90;58.10;100343.06;4407867;32;34588;-74
2022/07/12 02:45:16;;;;;;;3.22;1.37;;;;;;;14.16;57.56;100338.03;4407689;32;33509;-74
2022/07/12 02:47:43;;;;;;;6.25;1.40;;;;;;;14.65;55.90;100334.69;4407734;32;34031;-75
2022/07/12 02:50:11;;;;;;;4.68;1.45;;;;;;;15.11;54.53;100341.53;4407783;32;33968;-75
2022/07/12 02:52:39;;;;;;;3.55;1.45;;;;;;;15.30;53.93;100348.31;4408009;32;33648;-74
2022/07/12 02:55:06;;;;;;;6.70;1.58;;;;;;;15.31;53.93;100349.19;4406723;32;33660;-75
2022/07/12 02:57:34;;;;;;;4.43;1.15;;;;;;;13.99;57.91;100352.97;4406097;32;34746;-72
2022/07/12 03:00:02;;;;;;;7.03;1.50;;;;;;;13.91;58.29;100346.59;4408110;32;34926;-75
2022/07/12 03:02:30;;;;;;;3.72;1.48;;;;;;;13.65;59.26;100353.31;4405945;32;33551;-75
2022/07/12 03:04:58;;;;;;;3.62;1.27;;;;;;;13.39;60.39;100355.75;4407298;32;34761;-73
2022/07/12 03:07:25;;;;;;;3.25;1.20;;;;;;;13.66;59.70;100357.72;4408075;32;34740;-74
2022/07/12 03:09:52;;;;;;;4.82;1.15;;;;;;;13.73;59.58;100351.91;4408496;32;34382;-75
2022/07/12 03:12:20;;;;;;;3.53;1.17;;;;;;;13.77;59.20;100348.59;4406244;32;34439;-73
2022/07/12 03:14:48;;;;;;;6.05;1.42;;;;;;;13.96;58.81;100356.34;4402859;32;34488;-75
2022/07/12 03:17:15;;;;;;;4.72;1.17;;;;;;;13.91;59.08;100357.88;4408134;32;33783;-74
2022/07/12 03:19:43;;;;;;;5.75;1.45;;;;;;;14.13;58.39;100351.78;4408214;32;34098;-74
2022/07/12 03:22:10;;;;;;;6.35;1.30;;;;;;;14.31;57.91;100359.47;4408250;32;34312;-74
2022/07/12 03:24:38;;;;;;;4.87;1.50;;;;;;;14.71;56.67;100358.38;4407783;32;34523;-74
2022/07/12 03:27:06;;;;;;;7.05;1.45;;;;;;;14.73;56.53;100359.31;4407525;32;34084;-73
2022/07/12 03:29:33;;;;;;;4.50;1.30;;;;;;;14.76;56.56;100361.16;4407683;32;34053;-74
2022/07/12 03:32:00;;;;;;;3.58;1.52;;;;;;;14.60;57.08;100366.63;4408231;32;34352;-73
2022/07/12 03:34:28;;;;;;;5.47;1.60;;;;;;;14.46;57.74;100363.47;4408530;32;35486;-75
2022/07/12 03:36:56;;;;;;;5.18;1.35;;;;;;;14.21;58.72;100367.72;4407467;32;33923;-75
2022/07/12 03:39:24;;;;;;;6.12;1.83;;;;;;;14.12;59.05;100372.59;4407661;32;34864;-74
2022/07/12 03:41:52;;;;;;;3.37;1.37;;;;;;;14.19;58.80;100374.59;4408234;32;33531;-75
2022/07/12 03:44:19;;;;;;;3.75;1.45;;;;;;;14.48;58.07;100372.22;4407725;32;33993;-75
2022/07/12 03:46:47;;;;;;;8.88;1.65;;;;;;;14.88;56.54;100371.16;4407542;32;33968;-73
2022/07/12 03:49:15;;;;;;;5.03;1.50;;;;;;;15.21;55.69;100368.84;4394412;32;34833;-73
2022/07/12 03:51:42;;;;;;;2.95;1.40;;;;;;;15.62;54.36;100360.66;4408018;32;33487;-74
2022/07/12 03:54:10;;;;;;;5.93;1.48;;;;;;;15.37;54.95;100365.03;4406927;32;33728;-74
2022/07/12 03:59:23;;;;;;;3.70;1.17;;;;;;;15.63;54.09;100367.66;4407500;32;34047;-74
2022/07/12 04:01:51;;;;;;;2.72;1.12;;;;;;;15.85;53.39;100370.16;4407247;32;33707;-75
2022/07/12 04:04:19;;;;;;;4.68;1.00;;;;;;;16.10;52.77;100370.97;4408106;32;34103;-75
2022/07/12 04:06:47;;;;;;;4.22;1.20;;;;;;;16.32;52.57;100369.88;4407340;32;34815;-75
2022/07/12 04:09:14;;;;;;;4.25;1.12;;;;;;;15.81;54.30;100367.41;4407739;32;34142;-75
2022/07/12 04:11:42;;;;;;;3.08;1.00;;;;;;;15.61;54.72;100372.84;4394176;32;35289;-74
2022/07/12 04:14:09;;;;;;;2.90;1.10;;;;;;;15.43;55.01;100375.72;4406216;32;34077;-75
2022/07/12 04:16:37;;;;;;;6.90;1.30;;;;;;;15.25;55.52;100368.12;4407729;32;32413;-74
2022/07/12 04:19:05;;;;;;;4.97;1.58;;;;;;;14.84;57.49;100370.16;4407571;32;34121;-76
2022/07/12 04:21:32;;;;;;;7.32;1.40;;;;;;;15.38;56.10;100366.84;4393817;32;34460;-76
2022/07/12 04:24:00;;;;;;;5.43;1.08;;;;;;;15.33;56.22;100369.25;4407754;32;34202;-74
2022/07/12 04:26:27;;;;;;;7.12;1.58;;;;;;;15.26;56.94;100371.59;4407581;32;34822;-76
2022/07/12 04:28:55;;;;;;;3.03;1.10;;;;;;;15.55;55.75;100370.03;4407335;32;34070;-75
2022/07/12 04:31:26;;;;;;;2.62;1.00;;;;;;;15.46;56.47;100375.81;4406552;32;33318;-75
2022/07/12 04:33:55;;;;;;;5.18;1.05;;;;;;;15.20;57.54;100371.41;4393455;32;34054;-75
2022/07/12 04:36:23;;;;;;;5.40;0.90;;;;;;;15.29;57.45;100376.94;4393141;32;34754;-74
2022/07/12 04:38:50;;;;;;;5.78;1.35;;;;;;;15.27;57.46;100374.28;4406117;32;34370;-75
2022/07/12 04:41:18;;;;;;;4.97;1.00;;;;;;;15.46;56.88;100373.19;4406756;32;33656;-75
2022/07/12 04:43:50;;;;;;;5.25;0.95;;;;;;;16.33;54.71;100368.19;4407544;32;33764;-75
2022/07/12 04:46:18;;;;;;;4.70;1.00;;;;;;;16.35;53.94;100369.13;4393352;32;33412;-74
2022/07/12 04:48:45;;;;;;;3.72;0.80;;;;;;;16.98;52.90;100377.09;4392867;32;34483;-74
2022/07/12 04:51:15;;;;;;;3.80;0.90;;;;;;;17.49;51.31;100370.59;4406493;32;34113;-72
2022/07/12 04:53:43;;;;;;;2.60;0.60;;;;;;;16.41;54.51;100377.13;4399064;32;33848;-76
2022/07/12 04:56:10;;;;;;;4.85;0.70;;;;;;;16.94;53.28;100375.25;4403549;32;33700;-75
2022/07/12 04:58:37;;;;;;;2.78;1.00;;;;;;;17.28;51.97;100376.16;4401828;32;34157;-75
2022/07/12 05:01:07;;;;;;;2.35;0.80;;;;;;;17.36;52.05;100369.37;4406921;32;33872;-75
2022/07/12 05:03:34;;;;;;;3.72;0.85;;;;;;;17.56;50.92;100369.00;4406390;32;33986;-74
2022/07/12 05:06:02;;;;;;;3.67;0.82;;;;;;;16.66;54.21;100382.25;4394269;32;33962;-74
2022/07/12 05:08:30;;;;;;;2.75;0.90;;;;;;;17.23;52.05;100378.66;4399478;32;33646;-75
2022/07/12 05:10:57;;;;;;;3.42;0.80;;;;;;;16.63;53.59;100374.34;4407525;32;33648;-75
2022/07/12 05:13:25;;;;;;;2.35;0.60;;;;;;;17.45;51.39;100371.38;4391987;32;34488;-75
2022/07/12 05:15:53;;;;;;;5.65;0.93;;;;;;;17.56;50.72;100372.53;4408117;32;34212;-75
2022/07/12 05:18:20;;;;;;;5.10;1.20;;;;;;;17.68;50.10;100371.97;4407667;32;34800;-73
2022/07/12 05:20:48;;;;;;;3.67;1.00;;;;;;;17.44;50.82;100390.53;4408131;32;33616;-74
2022/07/12 05:23:19;;;;;;;3.60;0.80;;;;;;;17.54;50.38;100378.56;4406755;32;33616;-74
2022/07/12 05:25:46;;;;;;;4.30;0.90;;;;;;;16.55;53.19;100385.38;4394331;32;34062;-74
2022/07/12 05:28:15;;;;;;;5.43;0.95;;;;;;;16.46;53.33;100391.25;4406532;32;34806;-73
2022/07/12 05:30:43;;;;;;;3.10;0.77;;;;;;;16.46;53.82;100391.25;4393807;32;34374;-73
2022/07/12 05:33:14;;;;;;;2.42;0.90;;;;;;;16.78;53.14;100393.91;4407088;32;33837;-73
2022/07/12 05:35:41;;;;;;;2.30;0.62;;;;;;;17.12;52.39;100380.09;4406188;32;33123;-73
2022/07/12 05:38:09;;;;;;;3.35;0.82;;;;;;;16.87;52.49;100389.00;4407850;32;33925;-73
2022/07/12 05:40:36;;;;;;;5.25;0.80;;;;;;;17.42;52.05;100385.28;4407008;32;33634;-73
2022/07/12 05:43:04;;;;;;;4.75;1.10;;;;;;;17.38;52.16;100378.16;4406217;32;33918;-73
2022/07/12 05:45:32;;;;;;;4.80;0.82;;;;;;;18.23;49.61;100383.81;4391963;32;33544;-73
2022/07/12 05:47:59;;;;;;;4.10;0.90;;;;;;;17.38;51.31;100383.41;4408068;32;34910;-74
2022/07/12 05:50:27;;;;;;;1.25;0.60;;;;;;;17.76;50.65;100383.50;4408431;32;34357;-74
2022/07/12 05:55:41;;;;;;;2.83;0.70;;;;;;;19.09;47.72;100378.63;4408399;32;33647;-74
2022/07/12 05:58:09;;;;;;;6.03;1.65;;;;;;;18.00;50.62;100384.97;4395221;32;34728;-74
2022/07/12 06:00:36;;;;;;;2.70;0.70;;;;;;;18.25;49.56;100381.19;4408676;32;33815;-74
2022/07/12 06:03:04;;;;;;;1.48;0.60;;;;;;;18.38;48.92;100377.13;4405382;32;33871;-74
2022/07/12 06:05:32;;;;;;;2.47;0.70;;;;;;;19.00;48.08;100377.59;4407377;32;34447;-74
2022/07/12 06:07:59;;;;;;;2.90;0.68;;;;;;;19.68;45.38;100376.19;4407408;32;34737;-74
2022/07/12 06:10:27;;;;;;;3.85;0.68;;;;;;;19.81;45.07;100367.69;4406972;32;33742;-74
2022/07/12 06:12:55;;;;;;;1.37;0.60;;;;;;;19.64;45.81;100364.78;4391833;32;32759;-74
2022/07/12 06:15:24;;;;;;;6.15;0.95;;;;;;;20.00;45.09;100362.72;4408507;32;33972;-73
2022/07/12 06:17:58;;;;;;;4.00;0.68;;;;;;;19.12;46.76;100355.06;4393166;32;32460;-73
2022/07/12 06:20:25;;;;;;;2.42;0.85;;;;;;;19.72;45.64;100357.03;4406932;32;33655;-73
2022/07/12 06:22:53;;;;;;;1.85;0.68;;;;;;;19.59;46.08;100355.03;4405417;32;34672;-74
2022/07/12 06:25:23;;;;;;;2.10;0.47;;;;;;;20.35;43.75;100354.47;4407980;32;34735;-74
2022/07/12 06:28:11;;;;;;;2.83;0.90;;;;;;;19.97;45.05;100357.41;4396673;32;33524;-74
2022/07/12 06:30:39;;;;;;;3.78;0.60;;;;;;;20.56;43.70;100356.50;4407593;32;33796;-74
2022/07/12 06:33:06;;;;;;;2.50;0.50;;;;;;;21.00;42.25;100357.06;4408448;32;34116;-75
2022/07/12 06:35:34;;;;;;;2.90;0.70;;;;;;;20.95;41.54;100366.66;4410371;32;32378;-74
2022/07/12 06:38:02;;;;;;;2.28;0.70;;;;;;;20.91;41.38;100362.22;4411166;32;34797;-75
2022/07/12 06:40:30;;;;;;;4.12;0.70;;;;;;;20.83;42.72;100369.16;4408031;32;34226;-74
2022/07/12 06:42:58;;;;;;;4.00;0.70;;;;;;;21.31;41.60;100367.94;4407799;32;33290;-75
2022/07/12 06:45:26;;;;;;;6.70;0.80;;;;;;;20.95;42.93;100366.66;4401294;32;34032;-75
2022/07/12 06:47:53;;;;;;;2.75;0.60;;;;;;;21.28;42.14;100361.75;4406355;32;34146;-75
2022/07/12 06:50:21;;;;;;;4.20;0.90;;;;;;;20.85;42.98;100372.69;4403663;32;33370;-73
2022/07/12 06:52:49;;;;;;;3.00;0.73;;;;;;;20.14;43.67;100366.44;4406816;32;32842;-75
2022/07/12 06:55:17;;;;;;;5.45;0.80;;;;;;;19.90;44.71;100371.34;4407174;32;33928;-74
2022/07/12 06:57:45;;;;;;;2.22;0.60;;;;;;;21.14;42.44;100365.13;4406730;32;34544;-75
2022/07/12 07:00:12;;;;;;;3.03;0.65;;;;;;;21.16;42.52;100362.50;4406967;32;34283;-76
2022/07/12 07:02:40;;;;;;;2.72;0.70;;;;;;;21.73;41.13;100363.06;4408112;32;33860;-73
2022/07/12 07:05:08;;;;;;;1.83;0.60;;;;;;;20.90;42.26;100362.19;4392965;32;32367;-74
2022/07/12 07:07:36;;;;;;;3.45;0.60;;;;;;;20.75;42.82;100365.56;4393495;32;32433;-76
2022/07/12 07:10:04;;;;;;;2.47;0.68;;;;;;;21.32;41.57;100363.53;4390077;32;33637;-76
2022/07/12 07:12:31;;;;;;;1.35;0.60;;;;;;;20.45;43.33;100364.25;4410447;32;33941;-77
2022/07/12 07:14:59;;;;;;;1.48;0.50;;;;;;;21.37;41.38;100359.22;4407308;32;33986;-75
2022/07/12 07:17:27;;;;;;;4.78;0.70;;;;;;;21.88;39.79;100359.66;4408745;32;34017;-75
2022/07/12 07:19:54;;;;;;;2.70;0.60;;;;;;;21.83;40.58;100361.38;4407458;32;33967;-76
2022/07/12 07:22:22;;;;;;;4.00;0.62;;;;;;;22.78;38.07;100362.00;4407554;32;33576;-76
2022/07/12 07:24:50;;;;;;;3.47;0.50;;;;;;;21.50;39.10;100361.12;4395521;32;34485;-76
2022/07/12 07:27:17;;;;;;;2.70;0.60;;;;;;;21.69;40.22;100359.53;4406873;32;33939;-75
2022/07/12 07:32:31;;;;;;;2.65;0.77;;;;;;;22.46;38.18;100360.06;4408133;32;33869;-76
2022/07/12 07:34:59;;;;;;;5.90;0.77;;;;;;;22.53;38.86;100361.00;4404509;32;33991;-75
2022/07/12 07:37:26;;;;;;;1.90;0.52;;;;;;;22.57;37.76;100360.13;4405760;32;34809;-76
2022/07/12 07:39:54;;;;;;;1.85;0.60;;;;;;;22.42;38.18;100363.56;4405637;32;33529;-76
2022/07/12 07:42:21;;;;;;;1.52;0.52;;;;;;;23.84;35.89;100356.06;4406364;32;33956;-76
2022/07/12 07:44:49;;;;;;;1.87;0.40;;;;;;;23.70;35.85;100354.28;4392722;32;32896;-76
2022/07/12 07:47:48;;;;;;;4.30;0.60;;;;;;;24.05;36.46;100350.75;4403862;32;33750;-78
2022/07/12 07:50:35;;;;;;;4.35;0.77;;;;;;;24.77;34.12;100344.38;4404524;32;34162;-77
2022/07/12 07:53:04;;;;;;;5.78;0.60;;;;;;;23.87;35.75;100348.97;4385034;32;33822;-77
2022/07/12 07:55:33;;;;;;;2.72;0.62;;;;;;;22.47;37.46;100355.69;4406441;32;33416;-77
2022/07/12 07:58:00;;;;;;;4.72;0.80;;;;;;;23.02;36.89;100344.44;4406334;32;33685;-76
2022/07/12 08:00:29;;;;;;;3.92;0.70;;;;;;;22.84;37.44;100348.78;4407624;32;34193;-78
2022/07/12 08:02:57;;;;;;;3.97;0.70;;;;;;;22.49;38.15;100352.19;4402954;32;34749;-78
2022/07/12 08:05:24;;;;;;;8.40;1.02;;;;;;;24.17;36.20;100352.47;4407593;32;34072;-75
2022/07/12 08:07:56;;;;;;;3.92;0.60;;;;;;;23.24;36.50;100359.50;4394501;32;34257;-77
2022/07/12 08:10:25;;;;;;;1.52;0.57;;;;;;;24.07;34.29;100351.63;4406280;32;33360;-79
2022/07/12 08:12:53;;;;;;;2.42;0.57;;;;;;;25.89;31.78;100346.25;4406506;32;33681;-77
2022/07/12 08:15:20;;;;;;;2.53;0.80;;;;;;;25.27;33.41;100343.22;4407863;32;34126;-77
2022/07/12 08:17:48;;;;;;;2.50;0.75;;;;;;;24.57;33.66;100356.81;4406460;32;34043;-76
2022/07/12 08:20:22;;;;;;;3.05;0.73;;;;;;;24.97;33.44;100349.56;4406675;32;33442;-77
2022/07/12 08:23:10;;;;;;;4.07;0.88;;;;;;;24.33;34.49;100353.31;4405066;32;33591;-78
2022/07/12 08:25:37;;;;;;;2.17;0.90;;;;;;;23.45;36.50;100356.03;4406589;32;34000;-76
2022/07/12 08:28:06;;;;;;;3.62;1.00;;;;;;;23.14;37.03;100360.34;4405265;32;32842;-77
2022/07/12 08:30:34;;;;;;;4.53;1.00;;;;;;;23.02;38.39;100360.31;4405927;32;34283;-76
2022/07/12 08:33:06;;;;;;;4.80;1.00;;;;;;;22.84;38.56;100369.94;4387421;32;33913;-76
2022/07/12 08:35:34;;;;;;;2.33;0.80;;;;;;;22.57;37.68;100370.69;4407538;32;33696;-76
2022/07/12 08:38:02;;;;;;;5.00;0.95;;;;;;;22.84;37.19;100364.66;4406790;32;34155;-77
2022/07/12 08:40:29;;;;;;;2.20;1.23;;;;;;;22.76;37.61;100364.62;4407309;32;33497;-78
2022/07/12 08:42:57;;;;;;;6.15;0.70;;;;;;;22.77;37.29;100362.84;4408677;32;33704;-77
2022/07/12 08:45:25;;;;;;;3.55;0.73;;;;;;;23.51;36.08;100352.50;4408718;32;34663;-78
2022/07/12 08:47:52;;;;;;;3.12;0.95;;;;;;;24.36;34.03;100348.03;4408714;32;34837;-78
2022/07/12 08:50:23;;;;;;;5.97;1.12;;;;;;;24.24;34.19;100348.94;4409374;32;33941;-78
2022/07/12 08:52:52;;;;;;;3.95;0.90;;;;;;;25.56;33.00;100336.81;4394061;32;32766;-80
2022/07/12 08:55:35;;;;;;;7.47;1.15;;;;;;;26.27;31.96;100341.50;4407796;32;35348;-76
2022/07/12 08:58:15;;;;;;;4.60;0.90;;;;;;;25.96;31.80;100341.81;4404092;32;33837;-77
2022/07/12 09:00:43;;;;;;;3.17;0.80;;;;;;;25.56;31.64;100335.97;4409140;32;33645;-77
2022/07/12 09:03:17;;;;;;;2.05;0.68;;;;;;;25.56;31.96;100334.19;4407766;32;33467;-78
2022/07/12 09:05:57;;;;;;;3.83;0.60;;;;;;;25.99;30.91;100339.13;4408354;32;33864;-78
2022/07/12 09:08:33;;;;;;;1.83;0.60;;;;;;;23.96;33.82;100332.22;4408733;32;33882;-76
2022/07/12 09:11:03;;;;;;;2.28;0.73;;;;;;;24.45;32.58;100350.62;4397617;32;33673;-75
2022/07/12 09:13:52;;;;;;;2.58;0.50;;;;;;;23.86;33.58;100346.38;4408661;32;33656;-77
2022/07/12 09:16:24;;;;;;;3.35;0.60;;;;;;;25.31;31.11;100339.66;4407084;32;34089;-77
2022/07/12 09:19:11;;;;;;;2.00;0.60;;;;;;;25.38;30.70;100323.69;4406996;32;34361;-77
2022/07/12 09:21:46;;;;;;;1.02;0.50;;;;;;;25.97;31.07;100324.97;4401820;32;33659;-76
2022/07/12 09:24:14;;;;;;;2.47;0.50;;;;;;;25.51;31.48;100338.63;4406081;32;34200;-77
2022/07/12 09:26:43;;;;;;;2.30;0.50;;;;;;;25.15;31.38;100330.03;4407888;32;32323;-76
2022/07/12 09:29:13;;;;;;;2.70;0.50;;;;;;;24.82;31.55;100331.09;4392908;32;34437;-77
2022/07/12 09:37:23;;;;;;;5.20;0.80;;;;;;;24.59;32.18;100316.19;4409176;32;33878;-77
2022/07/12 09:39:55;;;;;;;7.28;0.57;;;;;;;23.89;33.64;100327.81;4408866;32;34740;-79
2022/07/12 09:42:23;;;;;;;1.87;0.50;;;;;;;23.23;34.58;100327.78;4409199;32;33900;-79
2022/07/12 09:44:57;;;;;;;1.17;0.55;;;;;;;24.26;33.51;100330.38;4388158;32;34051;-77
2022/07/12 09:47:25;;;;;;;2.12;0.50;;;;;;;25.07;33.12;100323.88;4393918;32;34379;-78
2022/07/12 09:49:53;;;;;;;1.83;0.60;;;;;;;25.53;30.46;100314.75;4406411;32;33831;-79
2022/07/12 09:52:23;;;;;;;2.45;0.70;;;;;;;24.92;31.21;100319.56;4400178;32;34395;-78
2022/07/12 09:54:55;;;;;;;2.05;0.50;;;;;;;24.76;32.49;100321.41;4386504;32;33126;-77
2022/07/12 09:57:32;;;;;;;4.47;0.60;;;;;;;24.04;33.26;100325.16;4391665;32;33820;-78
2022/07/12 10:00:03;;;;;;;3.03;0.65;;;;;;;24.76;32.07;100332.00;4392049;32;33973;-78
2022/07/12 10:02:38;;;;;;;1.95;0.55;;;;;;;24.38;32.51;100319.78;4393079;32;33504;-76
2022/07/12 10:05:07;;;;;;;5.45;0.70;;;;;;;24.41;32.68;100317.09;4398110;32;33688;-77
2022/07/12 10:07:37;;;;;;;1.45;0.60;;;;;;;24.76;31.74;100315.22;4392928;32;34715;-76
2022/07/12 10:10:06;;;;;;;1.83;0.52;;;;;;;24.89;31.02;100312.50;4393930;32;32891;-76
2022/07/12 10:12:34;;;;;;;2.42;0.50;;;;;;;23.77;32.36;100309.28;4367794;32;33509;-75
2022/07/12 10:15:09;;;;;;;2.25;0.43;;;;;;;24.03;32.25;100310.19;4393077;32;34691;-78
2022/07/12 10:17:37;;;;;;;4.85;0.62;;;;;;;24.39;32.23;100318.00;4392872;32;34724;-77
2022/07/12 10:20:19;;;;;;;5.35;1.40;;;;;;;24.79;31.25;100316.09;4375046;32;34059;-76
2022/07/12 10:22:47;;;;;;;4.15;0.68;;;;;;;24.84;32.36;100318.72;4388430;32;33735;-76
2022/07/12 10:25:30;;;;;;;1.45;0.60;;;;;;;25.13;31.32;100305.31;4382281;32;33617;-77
2022/07/12 10:28:00;;;;;;;2.67;0.43;;;;;;;25.21;30.24;100300.81;4388889;32;33802;-77
2022/07/12 10:30:28;;;;;;;3.58;0.70;;;;;;;25.21;29.61;100295.53;4391962;32;34650;-76
2022/07/12 10:32:59;;;;;;;1.00;0.45;;;;;;;24.87;30.17;100298.37;4388822;32;33358;-76
2022/07/12 10:35:29;;;;;;;1.35;0.50;;;;;;;24.61;30.13;100300.28;4377298;32;34041;-79
2022/07/12 10:38:12;;;;;;;4.03;0.57;;;;;;;24.80;30.38;100291.37;4376887;32;33023;-77
2022/07/12 10:40:44;;;;;;;3.10;0.60;;;;;;;24.26;30.49;100301.28;4393059;32;34164;-77
2022/07/12 10:43:17;;;;;;;1.45;0.52;;;;;;;24.34;31.13;100278.31;4392105;32;34068;-77
2022/07/12 10:45:47;;;;;;;1.87;0.50;;;;;;;24.94;30.31;100288.63;4391832;32;34525;-75
2022/07/12 10:48:17;;;;;;;3.00;0.40;;;;;;;25.12;29.96;100282.31;4393330;32;33861;-75
2022/07/12 10:50:45;;;;;;;4.18;0.60;;;;;;;24.96;30.63;100299.25;4393725;32;33986;-74
2022/07/12 10:53:18;;;;;;;3.53;0.70;;;;;;;24.16;33.06;100323.38;4395551;32;33520;-76
2022/07/12 10:56:04;;;;;;;10.40;1.62;;;;;;;22.50;40.65;100353.97;4407056;32;32320;-75
2022/07/12 10:58:41;;;;;;;5.35;0.68;;;;;;;20.78;52.57;100386.63;4408433;32;34557;-75
2022/07/12 11:01:11;;;;;;;3.72;1.95;;;;;;;20.53;49.75;100381.06;4382483;32;34098;-79
2022/07/12 11:03:47;;;;;;;3.90;0.80;;;;;;;20.74;49.01;100366.41;4389850;32;35492;-77
2022/07/12 11:06:25;;;;;;;3.97;0.85;;;;;;;21.23;49.59;100348.53;4407979;32;33995;-77
2022/07/12 11:08:52;;;;;;;2.05;0.68;;;;;;;21.14;56.06;100351.06;4401999;32;33823;-78
2022/07/12 11:11:21;;;;;;;2.97;1.10;;;;;;;21.34;52.76;100336.34;4408531;32;34528;-77
2022/07/12 11:13:49;;;;;;;5.10;1.23;;;;;;;21.91;50.29;100338.59;4395205;32;34294;-79
2022/07/12 11:16:17;;;;;;;4.75;1.05;;;;;;;22.58;49.79;100336.38;4408667;32;34561;-79
2022/07/12 11:18:45;;;;;;;6.53;1.50;;;;;;;23.46;51.08;100326.03;4409270;32;33795;-77
2022/07/12 11:21:13;;;;;;;7.70;1.50;;;;;;;24.03;50.40;100333.09;4391166;32;89147;-78
2022/07/12 11:23:41;;;;;;;4.53;1.08;;;;;;;24.21;52.07;100322.47;4408299;32;33600;-77
2022/07/12 11:26:10;;;;;;;6.32;1.20;;;;;;;24.52;56.51;100312.69;4407996;32;34182;-77
2022/07/12 11:28:39;;;;;;;2.25;0.73;;;;;;;25.35;51.19;100314.00;4408303;32;33849;-76
2022/07/12 11:31:11;;;;;;;2.12;0.70;;;;;;;24.37;46.52;100303.91;4398943;32;34150;-76
2022/07/12 11:33:42;;;;;;;2.17;0.62;;;;;;;24.71;45.88;100294.94;4408356;32;33434;-76
2022/07/12 11:36:12;;;;;;;3.12;0.70;;;;;;;24.70;38.83;100289.62;4408335;32;34643;-76
2022/07/12 11:38:41;;;;;;;4.28;0.80;;;;;;;23.86;38.91;100293.44;4407252;32;33643;-76
2022/07/12 11:41:12;;;;;;;4.43;0.77;;;;;;;23.84;42.77;100295.22;4407792;32;34061;-76
2022/07/12 11:43:40;;;;;;;3.12;0.80;;;;;;;23.50;41.24;100295.19;4406691;32;34149;-75
2022/07/12 11:46:09;;;;;;;3.60;0.70;;;;;;;23.59;39.93;100287.28;4407980;32;33384;-76
2022/07/12 11:48:37;;;;;;;1.50;0.62;;;;;;;24.11;39.80;100278.41;4406403;32;32588;-77
2022/07/12 11:51:10;;;;;;;2.40;0.70;;;;;;;24.00;39.59;100275.75;4406634;32;34214;-76